sensor_id;sensor_type;location;lat;lon;timestamp;P1;durP1;ratioP1;P2;durP2;ratioP2
25615;SDS011;13482;48.234;13.006;2022-09-27T00:01:05;2.15;;;1.30;;
25615;SDS011;13482;48.234;13.006;2022-09-27T00:03:36;2.35;;;1.20;;
25615;SDS011;13482;48.234;13.006;2022-09-27T00:09:06;2.10;;;1.10;;
25615;SDS011;13482;48.234;13.006;2022-09-27T00:11:38;1.95;;;1.25;;
25615;SDS011;13482;48.234;13.006;2022-09-27T00:14:11;2.50;;;1.20;;
25615;SDS011;13482;48.234;13.006;2022-09-27T00:16:41;2.08;;;1.15;;
25615;SDS011;13482;48.234;13.006;2022-09-27T00:19:11;1.92;;;1.13;;
25615;SDS011;13482;48.234;13.006;2022-09-27T00:21:47;2.10;;;1.05;;
25615;SDS011;13482;48.234;13.006;2022-09-27T00:24:16;2.40;;;1.35;;
25615;SDS011;13482;48.234;13.006;2022-09-27T00:26:47;1.73;;;1.20;;
25615;SDS011;13482;48.234;13.006;2022-09-27T00:29:16;1.60;;;1.00;;
25615;SDS011;13482;48.234;13.006;2022-09-27T00:31:44;1.90;;;1.10;;
25615;SDS011;13482;48.234;13.006;2022-09-27T00:34:15;4.40;;;1.33;;
25615;SDS011;13482;48.234;13.006;2022-09-27T00:36:47;2.20;;;1.10;;
25615;SDS011;13482;48.234;13.006;2022-09-27T00:39:15;2.85;;;1.00;;
25615;SDS011;13482;48.234;13.006;2022-09-27T00:41:43;1.75;;;1.05;;
25615;SDS011;13482;48.234;13.006;2022-09-27T00:49:43;2.25;;;1.08;;
25615;SDS011;13482;48.234;13.006;2022-09-27T00:52:58;1.67;;;1.02;;
25615;SDS011;13482;48.234;13.006;2022-09-27T00:55:23;1.90;;;1.40;;
25615;SDS011;13482;48.234;13.006;2022-09-27T00:57:55;2.03;;;1.30;;
25615;SDS011;13482;48.234;13.006;2022-09-27T01:00:23;2.28;;;1.50;;
25615;SDS011;13482;48.234;13.006;2022-09-27T01:02:51;2.25;;;1.40;;
25615;SDS011;13482;48.234;13.006;2022-09-27T01:05:21;2.08;;;1.40;;
25615;SDS011;13482;48.234;13.006;2022-09-27T01:10:27;1.80;;;1.17;;
25615;SDS011;13482;48.234;13.006;2022-09-27T01:13:10;1.80;;;1.27;;
25615;SDS011;13482;48.234;13.006;2022-09-27T01:15:54;2.85;;;1.77;;
25615;SDS011;13482;48.234;13.006;2022-09-27T01:31:11;2.33;;;1.50;;
25615;SDS011;13482;48.234;13.006;2022-09-27T01:36:55;2.22;;;1.33;;
25615;SDS011;13482;48.234;13.006;2022-09-27T01:39:46;1.55;;;1.10;;
25615;SDS011;13482;48.234;13.006;2022-09-27T01:42:38;1.73;;;0.98;;
25615;SDS011;13482;48.234;13.006;2022-09-27T01:45:26;2.53;;;1.25;;
25615;SDS011;13482;48.234;13.006;2022-09-27T01:48:16;1.70;;;1.20;;
25615;SDS011;13482;48.234;13.006;2022-09-27T01:51:03;2.25;;;1.30;;
25615;SDS011;13482;48.234;13.006;2022-09-27T01:53:45;2.05;;;1.15;;
25615;SDS011;13482;48.234;13.006;2022-09-27T01:56:23;2.10;;;1.40;;
25615;SDS011;13482;48.234;13.006;2022-09-27T01:59:01;3.78;;;1.30;;
25615;SDS011;13482;48.234;13.006;2022-09-27T02:01:34;2.30;;;1.10;;
25615;SDS011;13482;48.234;13.006;2022-09-27T02:04:04;2.70;;;1.20;;
25615;SDS011;13482;48.234;13.006;2022-09-27T02:06:40;1.88;;;1.10;;
25615;SDS011;13482;48.234;13.006;2022-09-27T02:12:10;1.00;;;0.73;;
25615;SDS011;13482;48.234;13.006;2022-09-27T02:14:47;1.10;;;0.80;;
25615;SDS011;13482;48.234;13.006;2022-09-27T02:22:37;2.30;;;1.10;;
25615;SDS011;13482;48.234;13.006;2022-09-27T02:27:58;1.23;;;0.80;;
25615;SDS011;13482;48.234;13.006;2022-09-27T02:30:41;2.05;;;0.80;;
25615;SDS011;13482;48.234;13.006;2022-09-27T02:33:09;1.90;;;1.10;;
25615;SDS011;13482;48.234;13.006;2022-09-27T02:35:36;2.40;;;1.25;;
25615;SDS011;13482;48.234;13.006;2022-09-27T02:38:04;1.92;;;1.10;;
25615;SDS011;13482;48.234;13.006;2022-09-27T02:40:34;1.90;;;1.10;;
25615;SDS011;13482;48.234;13.006;2022-09-27T02:43:08;1.50;;;0.90;;
25615;SDS011;13482;48.234;13.006;2022-09-27T02:45:40;1.90;;;1.00;;
25615;SDS011;13482;48.234;13.006;2022-09-27T02:57:56;1.40;;;0.70;;
25615;SDS011;13482;48.234;13.006;2022-09-27T03:01:07;1.30;;;0.80;;
25615;SDS011;13482;48.234;13.006;2022-09-27T03:03:52;1.23;;;0.80;;
25615;SDS011;13482;48.234;13.006;2022-09-27T03:06:33;1.83;;;0.90;;
25615;SDS011;13482;48.234;13.006;2022-09-27T03:09:01;1.60;;;1.00;;
25615;SDS011;13482;48.234;13.006;2022-09-27T03:11:29;1.33;;;0.85;;
25615;SDS011;13482;48.234;13.006;2022-09-27T03:13:56;1.80;;;1.00;;
25615;SDS011;13482;48.234;13.006;2022-09-27T03:16:34;2.58;;;0.98;;
25615;SDS011;13482;48.234;13.006;2022-09-27T03:19:01;1.98;;;0.95;;
25615;SDS011;13482;48.234;13.006;2022-09-27T03:21:29;1.70;;;1.10;;
25615;SDS011;13482;48.234;13.006;2022-09-27T03:23:56;1.70;;;1.00;;
25615;SDS011;13482;48.234;13.006;2022-09-27T03:26:23;2.40;;;1.17;;
25615;SDS011;13482;48.234;13.006;2022-09-27T03:28:50;1.60;;;1.00;;
25615;SDS011;13482;48.234;13.006;2022-09-27T03:31:18;2.70;;;0.90;;
25615;SDS011;13482;48.234;13.006;2022-09-27T03:33:45;1.50;;;0.70;;
25615;SDS011;13482;48.234;13.006;2022-09-27T03:36:13;1.63;;;0.93;;
25615;SDS011;13482;48.234;13.006;2022-09-27T03:38:40;2.72;;;0.93;;
25615;SDS011;13482;48.234;13.006;2022-09-27T03:41:07;1.00;;;0.80;;
25615;SDS011;13482;48.234;13.006;2022-09-27T03:43:34;1.15;;;0.80;;
25615;SDS011;13482;48.234;13.006;2022-09-27T03:46:01;1.40;;;1.00;;
25615;SDS011;13482;48.234;13.006;2022-09-27T03:48:29;1.45;;;0.70;;
25615;SDS011;13482;48.234;13.006;2022-09-27T03:50:56;1.63;;;1.00;;
25615;SDS011;13482;48.234;13.006;2022-09-27T03:53:24;1.45;;;0.98;;
25615;SDS011;13482;48.234;13.006;2022-09-27T03:55:51;1.23;;;0.70;;
25615;SDS011;13482;48.234;13.006;2022-09-27T03:58:18;1.38;;;0.93;;
25615;SDS011;13482;48.234;13.006;2022-09-27T04:00:45;1.38;;;0.80;;
25615;SDS011;13482;48.234;13.006;2022-09-27T04:03:13;1.88;;;0.75;;
25615;SDS011;13482;48.234;13.006;2022-09-27T04:05:40;2.10;;;1.40;;
25615;SDS011;13482;48.234;13.006;2022-09-27T04:08:08;2.30;;;1.50;;
25615;SDS011;13482;48.234;13.006;2022-09-27T04:10:37;1.70;;;1.10;;
25615;SDS011;13482;48.234;13.006;2022-09-27T04:13:04;1.52;;;1.00;;
25615;SDS011;13482;48.234;13.006;2022-09-27T04:15:32;2.35;;;0.90;;
25615;SDS011;13482;48.234;13.006;2022-09-27T04:18:00;3.33;;;1.00;;
25615;SDS011;13482;48.234;13.006;2022-09-27T04:20:27;0.90;;;0.70;;
25615;SDS011;13482;48.234;13.006;2022-09-27T04:22:54;1.15;;;0.80;;
25615;SDS011;13482;48.234;13.006;2022-09-27T04:25:22;1.65;;;1.00;;
25615;SDS011;13482;48.234;13.006;2022-09-27T04:27:49;1.48;;;0.93;;
25615;SDS011;13482;48.234;13.006;2022-09-27T04:30:20;1.80;;;1.08;;
25615;SDS011;13482;48.234;13.006;2022-09-27T04:32:48;2.40;;;1.10;;
25615;SDS011;13482;48.234;13.006;2022-09-27T04:35:15;1.05;;;0.80;;
25615;SDS011;13482;48.234;13.006;2022-09-27T04:38:02;2.28;;;0.98;;
25615;SDS011;13482;48.234;13.006;2022-09-27T04:40:32;1.63;;;0.95;;
25615;SDS011;13482;48.234;13.006;2022-09-27T04:43:00;1.55;;;0.80;;
25615;SDS011;13482;48.234;13.006;2022-09-27T04:45:29;2.10;;;1.15;;
25615;SDS011;13482;48.234;13.006;2022-09-27T04:47:57;1.83;;;0.90;;
25615;SDS011;13482;48.234;13.006;2022-09-27T04:50:24;1.48;;;0.90;;
25615;SDS011;13482;48.234;13.006;2022-09-27T04:52:52;1.88;;;1.00;;
25615;SDS011;13482;48.234;13.006;2022-09-27T04:55:20;1.40;;;0.88;;
25615;SDS011;13482;48.234;13.006;2022-09-27T04:57:48;1.35;;;0.98;;
25615;SDS011;13482;48.234;13.006;2022-09-27T05:00:16;1.40;;;0.82;;
25615;SDS011;13482;48.234;13.006;2022-09-27T05:02:43;2.28;;;0.98;;
25615;SDS011;13482;48.234;13.006;2022-09-27T05:07:42;1.25;;;0.80;;
25615;SDS011;13482;48.234;13.006;2022-09-27T05:10:09;1.60;;;1.00;;
25615;SDS011;13482;48.234;13.006;2022-09-27T05:12:36;1.85;;;1.10;;
25615;SDS011;13482;48.234;13.006;2022-09-27T05:15:04;1.67;;;0.90;;
25615;SDS011;13482;48.234;13.006;2022-09-27T05:17:32;2.15;;;1.27;;
25615;SDS011;13482;48.234;13.006;2022-09-27T05:19:59;2.42;;;1.00;;
25615;SDS011;13482;48.234;13.006;2022-09-27T05:22:27;1.30;;;0.82;;
25615;SDS011;13482;48.234;13.006;2022-09-27T05:24:54;1.60;;;0.90;;
25615;SDS011;13482;48.234;13.006;2022-09-27T05:27:21;2.47;;;1.58;;
25615;SDS011;13482;48.234;13.006;2022-09-27T05:29:48;2.38;;;1.48;;
25615;SDS011;13482;48.234;13.006;2022-09-27T05:32:16;2.00;;;1.15;;
25615;SDS011;13482;48.234;13.006;2022-09-27T05:34:43;2.30;;;1.38;;
25615;SDS011;13482;48.234;13.006;2022-09-27T05:37:10;1.65;;;1.17;;
25615;SDS011;13482;48.234;13.006;2022-09-27T05:39:38;2.90;;;1.83;;
25615;SDS011;13482;48.234;13.006;2022-09-27T05:42:05;1.85;;;1.25;;
25615;SDS011;13482;48.234;13.006;2022-09-27T05:44:35;1.70;;;1.10;;
25615;SDS011;13482;48.234;13.006;2022-09-27T05:47:03;2.65;;;1.02;;
25615;SDS011;13482;48.234;13.006;2022-09-27T05:49:31;1.38;;;0.85;;
25615;SDS011;13482;48.234;13.006;2022-09-27T05:51:59;2.00;;;1.00;;
25615;SDS011;13482;48.234;13.006;2022-09-27T05:54:27;1.35;;;0.75;;
25615;SDS011;13482;48.234;13.006;2022-09-27T05:56:55;1.40;;;0.77;;
25615;SDS011;13482;48.234;13.006;2022-09-27T05:59:26;1.58;;;1.10;;
25615;SDS011;13482;48.234;13.006;2022-09-27T06:01:53;4.18;;;2.83;;
25615;SDS011;13482;48.234;13.006;2022-09-27T06:04:21;5.10;;;3.53;;
25615;SDS011;13482;48.234;13.006;2022-09-27T06:06:48;4.40;;;3.47;;
25615;SDS011;13482;48.234;13.006;2022-09-27T06:09:15;3.55;;;2.83;;
25615;SDS011;13482;48.234;13.006;2022-09-27T06:11:43;3.53;;;2.67;;
25615;SDS011;13482;48.234;13.006;2022-09-27T06:14:12;2.63;;;1.98;;
25615;SDS011;13482;48.234;13.006;2022-09-27T06:16:39;2.40;;;1.70;;
25615;SDS011;13482;48.234;13.006;2022-09-27T06:19:06;1.90;;;1.30;;
25615;SDS011;13482;48.234;13.006;2022-09-27T06:21:34;2.05;;;1.30;;
25615;SDS011;13482;48.234;13.006;2022-09-27T06:24:01;2.13;;;1.42;;
25615;SDS011;13482;48.234;13.006;2022-09-27T06:26:29;2.30;;;1.50;;
25615;SDS011;13482;48.234;13.006;2022-09-27T06:28:57;2.00;;;1.30;;
25615;SDS011;13482;48.234;13.006;2022-09-27T06:31:24;2.38;;;1.60;;
25615;SDS011;13482;48.234;13.006;2022-09-27T06:33:51;2.30;;;1.60;;
25615;SDS011;13482;48.234;13.006;2022-09-27T06:36:18;1.75;;;1.25;;
25615;SDS011;13482;48.234;13.006;2022-09-27T06:38:45;1.52;;;0.95;;
25615;SDS011;13482;48.234;13.006;2022-09-27T06:41:14;2.13;;;1.17;;
25615;SDS011;13482;48.234;13.006;2022-09-27T06:43:41;2.03;;;1.10;;
25615;SDS011;13482;48.234;13.006;2022-09-27T06:46:08;1.70;;;1.10;;
25615;SDS011;13482;48.234;13.006;2022-09-27T06:48:36;1.58;;;0.90;;
25615;SDS011;13482;48.234;13.006;2022-09-27T06:51:04;1.25;;;0.88;;
25615;SDS011;13482;48.234;13.006;2022-09-27T06:53:32;2.10;;;1.10;;
25615;SDS011;13482;48.234;13.006;2022-09-27T06:55:59;1.42;;;1.00;;
25615;SDS011;13482;48.234;13.006;2022-09-27T06:58:27;1.85;;;1.10;;
25615;SDS011;13482;48.234;13.006;2022-09-27T07:01:13;1.38;;;0.90;;
25615;SDS011;13482;48.234;13.006;2022-09-27T07:03:43;1.80;;;0.90;;
25615;SDS011;13482;48.234;13.006;2022-09-27T07:06:19;1.10;;;0.70;;
25615;SDS011;13482;48.234;13.006;2022-09-27T07:08:52;1.60;;;0.85;;
25615;SDS011;13482;48.234;13.006;2022-09-27T07:11:20;2.55;;;1.10;;
25615;SDS011;13482;48.234;13.006;2022-09-27T07:13:49;1.88;;;1.02;;
25615;SDS011;13482;48.234;13.006;2022-09-27T07:16:17;2.05;;;0.85;;
25615;SDS011;13482;48.234;13.006;2022-09-27T07:18:45;1.33;;;0.77;;
25615;SDS011;13482;48.234;13.006;2022-09-27T07:21:15;1.30;;;0.82;;
25615;SDS011;13482;48.234;13.006;2022-09-27T07:23:42;1.38;;;0.90;;
25615;SDS011;13482;48.234;13.006;2022-09-27T07:26:09;1.15;;;0.80;;
25615;SDS011;13482;48.234;13.006;2022-09-27T07:28:37;1.65;;;0.73;;
25615;SDS011;13482;48.234;13.006;2022-09-27T07:31:07;1.27;;;0.70;;
25615;SDS011;13482;48.234;13.006;2022-09-27T07:33:35;1.52;;;0.70;;
25615;SDS011;13482;48.234;13.006;2022-09-27T07:36:09;0.80;;;0.60;;
25615;SDS011;13482;48.234;13.006;2022-09-27T07:38:38;1.05;;;0.50;;
25615;SDS011;13482;48.234;13.006;2022-09-27T07:41:05;0.70;;;0.45;;
25615;SDS011;13482;48.234;13.006;2022-09-27T07:43:35;2.20;;;0.93;;
25615;SDS011;13482;48.234;13.006;2022-09-27T07:46:03;1.45;;;0.80;;
25615;SDS011;13482;48.234;13.006;2022-09-27T07:48:30;13.07;;;9.70;;
25615;SDS011;13482;48.234;13.006;2022-09-27T07:50:58;7.45;;;6.50;;
25615;SDS011;13482;48.234;13.006;2022-09-27T07:53:25;5.63;;;3.50;;
25615;SDS011;13482;48.234;13.006;2022-09-27T07:55:53;2.80;;;2.03;;
25615;SDS011;13482;48.234;13.006;2022-09-27T07:58:20;2.10;;;1.40;;
25615;SDS011;13482;48.234;13.006;2022-09-27T08:00:47;2.97;;;2.65;;
25615;SDS011;13482;48.234;13.006;2022-09-27T08:03:15;4.30;;;3.97;;
25615;SDS011;13482;48.234;13.006;2022-09-27T08:05:44;3.75;;;2.65;;
25615;SDS011;13482;48.234;13.006;2022-09-27T08:08:13;1.85;;;1.58;;
25615;SDS011;13482;48.234;13.006;2022-09-27T08:10:42;2.13;;;1.50;;
25615;SDS011;13482;48.234;13.006;2022-09-27T08:13:10;1.30;;;1.00;;
25615;SDS011;13482;48.234;13.006;2022-09-27T08:15:38;2.97;;;0.73;;
25615;SDS011;13482;48.234;13.006;2022-09-27T08:18:05;1.83;;;1.00;;
25615;SDS011;13482;48.234;13.006;2022-09-27T08:20:36;1.30;;;0.70;;
25615;SDS011;13482;48.234;13.006;2022-09-27T08:23:05;1.05;;;0.70;;
25615;SDS011;13482;48.234;13.006;2022-09-27T08:25:32;3.33;;;0.75;;
25615;SDS011;13482;48.234;13.006;2022-09-27T08:28:01;1.23;;;0.63;;
25615;SDS011;13482;48.234;13.006;2022-09-27T08:30:32;1.90;;;1.10;;
25615;SDS011;13482;48.234;13.006;2022-09-27T08:32:59;2.30;;;0.90;;
25615;SDS011;13482;48.234;13.006;2022-09-27T08:35:29;2.60;;;0.90;;
25615;SDS011;13482;48.234;13.006;2022-09-27T08:37:59;1.33;;;0.70;;
25615;SDS011;13482;48.234;13.006;2022-09-27T08:48:58;24.65;;;14.38;;
25615;SDS011;13482;48.234;13.006;2022-09-27T08:51:50;60.47;;;26.98;;
25615;SDS011;13482;48.234;13.006;2022-09-27T08:54:27;63.05;;;27.88;;
25615;SDS011;13482;48.234;13.006;2022-09-27T08:56:59;73.50;;;30.88;;
25615;SDS011;13482;48.234;13.006;2022-09-27T09:00:14;108.20;;;46.63;;
25615;SDS011;13482;48.234;13.006;2022-09-27T09:02:48;75.95;;;33.65;;
25615;SDS011;13482;48.234;13.006;2022-09-27T09:05:25;57.60;;;27.58;;
25615;SDS011;13482;48.234;13.006;2022-09-27T09:14:44;50.45;;;25.65;;
25615;SDS011;13482;48.234;13.006;2022-09-27T09:32:21;23.05;;;12.73;;
25615;SDS011;13482;48.234;13.006;2022-09-27T09:34:58;17.77;;;10.13;;
25615;SDS011;13482;48.234;13.006;2022-09-27T09:40:22;21.00;;;11.40;;
25615;SDS011;13482;48.234;13.006;2022-09-27T09:43:02;24.52;;;14.45;;
25615;SDS011;13482;48.234;13.006;2022-09-27T09:45:46;17.48;;;10.25;;
25615;SDS011;13482;48.234;13.006;2022-09-27T09:48:50;77.50;;;39.50;;
25615;SDS011;13482;48.234;13.006;2022-09-27T09:51:34;24.58;;;17.20;;
25615;SDS011;13482;48.234;13.006;2022-09-27T09:57:48;4.13;;;1.98;;
25615;SDS011;13482;48.234;13.006;2022-09-27T10:00:02;2.60;;;1.23;;
25615;SDS011;13482;48.234;13.006;2022-09-27T10:02:39;1.17;;;0.70;;
25615;SDS011;13482;48.234;13.006;2022-09-27T10:05:28;0.77;;;0.68;;
25615;SDS011;13482;48.234;13.006;2022-09-27T10:07:59;1.52;;;1.10;;
25615;SDS011;13482;48.234;13.006;2022-09-27T10:10:31;0.95;;;0.77;;
25615;SDS011;13482;48.234;13.006;2022-09-27T10:12:58;0.85;;;0.32;;
25615;SDS011;13482;48.234;13.006;2022-09-27T10:15:29;0.50;;;0.30;;
25615;SDS011;13482;48.234;13.006;2022-09-27T10:17:57;1.52;;;0.30;;
25615;SDS011;13482;48.234;13.006;2022-09-27T10:20:38;0.77;;;0.40;;
25615;SDS011;13482;48.234;13.006;2022-09-27T10:23:16;0.50;;;0.30;;
25615;SDS011;13482;48.234;13.006;2022-09-27T10:25:54;0.68;;;0.40;;
25615;SDS011;13482;48.234;13.006;2022-09-27T10:28:28;0.55;;;0.20;;
25615;SDS011;13482;48.234;13.006;2022-09-27T10:31:03;0.90;;;0.20;;
25615;SDS011;13482;48.234;13.006;2022-09-27T10:33:54;1.52;;;0.50;;
25615;SDS011;13482;48.234;13.006;2022-09-27T10:36:28;0.40;;;0.13;;
25615;SDS011;13482;48.234;13.006;2022-09-27T10:38:59;0.50;;;0.30;;
25615;SDS011;13482;48.234;13.006;2022-09-27T10:41:34;0.60;;;0.25;;
25615;SDS011;13482;48.234;13.006;2022-09-27T10:46:49;0.57;;;0.28;;
25615;SDS011;13482;48.234;13.006;2022-09-27T10:52:19;0.30;;;0.20;;
25615;SDS011;13482;48.234;13.006;2022-09-27T10:54:59;0.30;;;0.20;;
25615;SDS011;13482;48.234;13.006;2022-09-27T10:57:53;0.30;;;0.20;;
25615;SDS011;13482;48.234;13.006;2022-09-27T11:00:23;0.20;;;0.20;;
25615;SDS011;13482;48.234;13.006;2022-09-27T11:02:57;0.47;;;0.20;;
25615;SDS011;13482;48.234;13.006;2022-09-27T11:05:31;0.70;;;0.17;;
25615;SDS011;13482;48.234;13.006;2022-09-27T11:10:59;1.45;;;0.30;;
25615;SDS011;13482;48.234;13.006;2022-09-27T11:13:59;4.28;;;0.57;;
25615;SDS011;13482;48.234;13.006;2022-09-27T11:16:39;1.27;;;0.65;;
25615;SDS011;13482;48.234;13.006;2022-09-27T11:44:17;0.70;;;0.28;;
25615;SDS011;13482;48.234;13.006;2022-09-27T11:47:05;1.45;;;0.10;;
25615;SDS011;13482;48.234;13.006;2022-09-27T11:52:49;0.30;;;0.20;;
25615;SDS011;13482;48.234;13.006;2022-09-27T12:04:06;0.25;;;0.20;;
25615;SDS011;13482;48.234;13.006;2022-09-27T12:07:14;0.32;;;0.20;;
25615;SDS011;13482;48.234;13.006;2022-09-27T12:10:19;0.60;;;0.20;;
25615;SDS011;13482;48.234;13.006;2022-09-27T12:12:50;0.20;;;0.20;;
25615;SDS011;13482;48.234;13.006;2022-09-27T12:15:23;0.22;;;0.15;;
25615;SDS011;13482;48.234;13.006;2022-09-27T12:18:16;0.40;;;0.20;;
25615;SDS011;13482;48.234;13.006;2022-09-27T12:21:00;0.28;;;0.10;;
25615;SDS011;13482;48.234;13.006;2022-09-27T12:23:32;0.95;;;0.20;;
25615;SDS011;13482;48.234;13.006;2022-09-27T12:26:16;0.15;;;0.10;;
25615;SDS011;13482;48.234;13.006;2022-09-27T12:28:55;0.70;;;0.20;;
25615;SDS011;13482;48.234;13.006;2022-09-27T12:34:55;0.65;;;0.20;;
25615;SDS011;13482;48.234;13.006;2022-09-27T12:37:31;0.47;;;0.20;;
25615;SDS011;13482;48.234;13.006;2022-09-27T12:42:56;1.35;;;0.10;;
25615;SDS011;13482;48.234;13.006;2022-09-27T12:46:07;1.80;;;0.20;;
25615;SDS011;13482;48.234;13.006;2022-09-27T12:48:53;1.27;;;0.20;;
25615;SDS011;13482;48.234;13.006;2022-09-27T12:51:40;0.43;;;0.20;;
25615;SDS011;13482;48.234;13.006;2022-09-27T12:57:41;0.30;;;0.20;;
25615;SDS011;13482;48.234;13.006;2022-09-27T13:00:44;0.52;;;0.00;;
25615;SDS011;13482;48.234;13.006;2022-09-27T13:12:09;0.30;;;0.03;;
25615;SDS011;13482;48.234;13.006;2022-09-27T13:17:33;0.10;;;0.08;;
25615;SDS011;13482;48.234;13.006;2022-09-27T13:29:19;0.05;;;0.05;;
25615;SDS011;13482;48.234;13.006;2022-09-27T13:34:58;0.40;;;0.20;;
25615;SDS011;13482;48.234;13.006;2022-09-27T13:37:28;0.22;;;0.20;;
25615;SDS011;13482;48.234;13.006;2022-09-27T13:42:44;0.68;;;0.20;;
25615;SDS011;13482;48.234;13.006;2022-09-27T13:45:52;0.43;;;0.20;;
25615;SDS011;13482;48.234;13.006;2022-09-27T13:51:42;0.57;;;0.10;;
25615;SDS011;13482;48.234;13.006;2022-09-27T13:54:36;0.85;;;0.20;;
25615;SDS011;13482;48.234;13.006;2022-09-27T13:57:33;0.10;;;0.10;;
25615;SDS011;13482;48.234;13.006;2022-09-27T14:00:17;0.90;;;0.15;;
25615;SDS011;13482;48.234;13.006;2022-09-27T14:06:33;0.55;;;0.25;;
25615;SDS011;13482;48.234;13.006;2022-09-27T14:09:14;0.43;;;0.15;;
25615;SDS011;13482;48.234;13.006;2022-09-27T14:11:49;0.30;;;0.20;;
25615;SDS011;13482;48.234;13.006;2022-09-27T14:14:23;0.20;;;0.10;;
25615;SDS011;13482;48.234;13.006;2022-09-27T14:16:55;0.25;;;0.20;;
25615;SDS011;13482;48.234;13.006;2022-09-27T14:19:26;0.30;;;0.10;;
25615;SDS011;13482;48.234;13.006;2022-09-27T14:24:54;0.28;;;0.20;;
25615;SDS011;13482;48.234;13.006;2022-09-27T14:32:47;0.40;;;0.20;;
25615;SDS011;13482;48.234;13.006;2022-09-27T14:35:17;0.60;;;0.40;;
25615;SDS011;13482;48.234;13.006;2022-09-27T14:38:20;0.40;;;0.20;;
25615;SDS011;13482;48.234;13.006;2022-09-27T14:41:05;0.60;;;0.32;;
25615;SDS011;13482;48.234;13.006;2022-09-27T14:43:34;0.55;;;0.20;;
25615;SDS011;13482;48.234;13.006;2022-09-27T14:46:24;0.40;;;0.20;;
25615;SDS011;13482;48.234;13.006;2022-09-27T14:48:55;0.40;;;0.30;;
25615;SDS011;13482;48.234;13.006;2022-09-27T14:51:28;0.30;;;0.20;;
25615;SDS011;13482;48.234;13.006;2022-09-27T14:53:58;0.30;;;0.10;;
25615;SDS011;13482;48.234;13.006;2022-09-27T14:56:31;0.52;;;0.20;;
25615;SDS011;13482;48.234;13.006;2022-09-27T14:59:06;0.30;;;0.17;;
25615;SDS011;13482;48.234;13.006;2022-09-27T15:01:48;0.90;;;0.13;;
25615;SDS011;13482;48.234;13.006;2022-09-27T15:04:16;0.10;;;0.10;;
25615;SDS011;13482;48.234;13.006;2022-09-27T15:06:46;0.63;;;0.20;;
25615;SDS011;13482;48.234;13.006;2022-09-27T15:09:15;0.47;;;0.20;;
25615;SDS011;13482;48.234;13.006;2022-09-27T15:11:44;0.50;;;0.20;;
25615;SDS011;13482;48.234;13.006;2022-09-27T15:14:18;0.25;;;0.10;;
25615;SDS011;13482;48.234;13.006;2022-09-27T15:16:47;0.20;;;0.10;;
25615;SDS011;13482;48.234;13.006;2022-09-27T15:21:52;0.22;;;0.08;;
25615;SDS011;13482;48.234;13.006;2022-09-27T15:29:53;0.30;;;0.10;;
25615;SDS011;13482;48.234;13.006;2022-09-27T15:32:22;0.10;;;0.10;;
25615;SDS011;13482;48.234;13.006;2022-09-27T15:34:53;0.45;;;0.13;;
25615;SDS011;13482;48.234;13.006;2022-09-27T15:40:07;0.70;;;0.30;;
25615;SDS011;13482;48.234;13.006;2022-09-27T15:43:20;1.00;;;0.50;;
25615;SDS011;13482;48.234;13.006;2022-09-27T15:51:44;0.50;;;0.20;;
25615;SDS011;13482;48.234;13.006;2022-09-27T15:54:22;0.43;;;0.13;;
25615;SDS011;13482;48.234;13.006;2022-09-27T15:56:56;0.20;;;0.13;;
25615;SDS011;13482;48.234;13.006;2022-09-27T15:59:31;0.43;;;0.20;;
25615;SDS011;13482;48.234;13.006;2022-09-27T16:02:13;0.70;;;0.10;;
25615;SDS011;13482;48.234;13.006;2022-09-27T16:04:44;0.70;;;0.20;;
25615;SDS011;13482;48.234;13.006;2022-09-27T16:07:11;0.75;;;0.38;;
25615;SDS011;13482;48.234;13.006;2022-09-27T16:09:40;0.80;;;0.25;;
25615;SDS011;13482;48.234;13.006;2022-09-27T16:12:08;1.20;;;0.20;;
25615;SDS011;13482;48.234;13.006;2022-09-27T16:14:35;1.52;;;0.13;;
25615;SDS011;13482;48.234;13.006;2022-09-27T16:17:03;0.55;;;0.30;;
25615;SDS011;13482;48.234;13.006;2022-09-27T16:19:30;0.50;;;0.22;;
25615;SDS011;13482;48.234;13.006;2022-09-27T16:21:57;0.32;;;0.20;;
25615;SDS011;13482;48.234;13.006;2022-09-27T16:24:28;0.65;;;0.20;;
25615;SDS011;13482;48.234;13.006;2022-09-27T16:26:56;0.47;;;0.20;;
25615;SDS011;13482;48.234;13.006;2022-09-27T16:29:24;0.93;;;0.40;;
25615;SDS011;13482;48.234;13.006;2022-09-27T16:31:52;0.30;;;0.20;;
25615;SDS011;13482;48.234;13.006;2022-09-27T16:34:19;1.25;;;0.30;;
25615;SDS011;13482;48.234;13.006;2022-09-27T16:36:48;1.33;;;0.30;;
25615;SDS011;13482;48.234;13.006;2022-09-27T16:39:15;2.40;;;0.22;;
25615;SDS011;13482;48.234;13.006;2022-09-27T16:41:43;0.38;;;0.20;;
25615;SDS011;13482;48.234;13.006;2022-09-27T16:44:11;0.60;;;0.22;;
25615;SDS011;13482;48.234;13.006;2022-09-27T16:46:43;2.25;;;0.80;;
25615;SDS011;13482;48.234;13.006;2022-09-27T16:49:11;0.90;;;0.30;;
25615;SDS011;13482;48.234;13.006;2022-09-27T16:51:57;0.88;;;0.40;;
25615;SDS011;13482;48.234;13.006;2022-09-27T16:54:27;0.80;;;0.25;;
25615;SDS011;13482;48.234;13.006;2022-09-27T16:56:56;1.52;;;0.30;;
25615;SDS011;13482;48.234;13.006;2022-09-27T16:59:24;0.65;;;0.30;;
25615;SDS011;13482;48.234;13.006;2022-09-27T17:01:53;0.55;;;0.28;;
25615;SDS011;13482;48.234;13.006;2022-09-27T17:04:26;0.63;;;0.22;;
25615;SDS011;13482;48.234;13.006;2022-09-27T17:06:56;1.23;;;0.65;;
25615;SDS011;13482;48.234;13.006;2022-09-27T17:09:27;3.55;;;1.83;;
25615;SDS011;13482;48.234;13.006;2022-09-27T17:11:58;5.32;;;2.92;;
25615;SDS011;13482;48.234;13.006;2022-09-27T17:14:27;6.00;;;3.35;;
25615;SDS011;13482;48.234;13.006;2022-09-27T17:16:59;3.85;;;1.58;;
25615;SDS011;13482;48.234;13.006;2022-09-27T17:19:30;2.43;;;0.97;;
25615;SDS011;13482;48.234;13.006;2022-09-27T17:22:06;1.60;;;0.70;;
25615;SDS011;13482;48.234;13.006;2022-09-27T17:24:37;1.17;;;0.65;;
25615;SDS011;13482;48.234;13.006;2022-09-27T17:27:08;1.98;;;0.60;;
25615;SDS011;13482;48.234;13.006;2022-09-27T17:29:40;1.30;;;0.43;;
25615;SDS011;13482;48.234;13.006;2022-09-27T17:32:13;2.13;;;1.48;;
25615;SDS011;13482;48.234;13.006;2022-09-27T17:34:52;2.10;;;1.13;;
25615;SDS011;13482;48.234;13.006;2022-09-27T17:37:26;1.95;;;0.70;;
25615;SDS011;13482;48.234;13.006;2022-09-27T17:39:59;1.10;;;0.85;;
25615;SDS011;13482;48.234;13.006;2022-09-27T17:42:32;1.42;;;0.80;;
25615;SDS011;13482;48.234;13.006;2022-09-27T17:45:04;1.77;;;0.60;;
25615;SDS011;13482;48.234;13.006;2022-09-27T17:47:39;2.00;;;1.02;;
25615;SDS011;13482;48.234;13.006;2022-09-27T17:50:30;1.27;;;0.70;;
25615;SDS011;13482;48.234;13.006;2022-09-27T17:53:03;2.05;;;0.60;;
25615;SDS011;13482;48.234;13.006;2022-09-27T17:55:35;1.20;;;0.60;;
25615;SDS011;13482;48.234;13.006;2022-09-27T17:58:06;1.00;;;0.60;;
25615;SDS011;13482;48.234;13.006;2022-09-27T18:00:38;1.90;;;0.90;;
25615;SDS011;13482;48.234;13.006;2022-09-27T18:03:09;1.92;;;1.08;;
25615;SDS011;13482;48.234;13.006;2022-09-27T18:05:41;0.90;;;0.65;;
25615;SDS011;13482;48.234;13.006;2022-09-27T18:08:13;1.42;;;0.70;;
25615;SDS011;13482;48.234;13.006;2022-09-27T18:10:44;1.27;;;0.50;;
25615;SDS011;13482;48.234;13.006;2022-09-27T18:13:16;0.75;;;0.50;;
25615;SDS011;13482;48.234;13.006;2022-09-27T18:15:53;1.17;;;0.60;;
25615;SDS011;13482;48.234;13.006;2022-09-27T18:18:25;0.73;;;0.43;;
25615;SDS011;13482;48.234;13.006;2022-09-27T18:20:53;0.60;;;0.35;;
25615;SDS011;13482;48.234;13.006;2022-09-27T18:23:30;0.60;;;0.40;;
25615;SDS011;13482;48.234;13.006;2022-09-27T18:25:59;0.60;;;0.38;;
25615;SDS011;13482;48.234;13.006;2022-09-27T18:28:29;1.55;;;0.57;;